Time;durP1;ratioP1;P1;durP2;ratioP2;P2;SDS_P1;SDS_P2;PMS_P1;PMS_P2;Temp;Humidity;BMP_temperature;BMP_pressure;BME280_temperature;BME280_humidity;BME280_pressure;Samples;Min_cycle;Max_cycle;Signal;HPM_P1;HPM_P2
2021/07/17 00:01:16;;;;;;;3.28;1.65;;;;;;;;;;6301681;22;20055;-38
2021/07/17 00:03:42;;;;;;;4.30;2.30;;;;;;;;;;6301238;22;20006;-40
2021/07/17 00:06:07;;;;;;;2.70;1.95;;;;;;;;;;6301813;22;20078;-38
2021/07/17 00:08:32;;;;;;;1.63;1.20;;;;;;;;;;6301280;22;20048;-39
2021/07/17 00:10:58;;;;;;;2.78;1.50;;;;;;;;;;6301791;22;19995;-39
2021/07/17 00:13:23;;;;;;;2.63;1.88;;;;;;;;;;6301378;22;20448;-40
2021/07/17 00:15:50;;;;;;;3.53;2.05;;;;;;;;;;6301336;22;20049;-38
2021/07/17 00:18:17;;;;;;;1.98;1.45;;;;;;;;;;6301615;22;19999;-39
2021/07/17 00:20:43;;;;;;;2.35;1.52;;;;;;;;;;6302269;22;20018;-38
2021/07/17 00:23:08;;;;;;;4.55;1.95;;;;;;;;;;6301452;22;20412;-38
2021/07/17 00:25:34;;;;;;;2.38;1.63;;;;;;;;;;6302297;22;19995;-39
2021/07/17 00:27:59;;;;;;;3.30;1.73;;;;;;;;;;6302089;22;19999;-38
2021/07/17 00:30:25;;;;;;;3.05;1.75;;;;;;;;;;6302034;22;20442;-38
2021/07/17 00:32:50;;;;;;;1.80;1.48;;;;;;;;;;6301283;22;20007;-38
2021/07/17 00:35:16;;;;;;;3.75;2.40;;;;;;;;;;6301815;22;19998;-39
2021/07/17 00:37:41;;;;;;;3.45;1.42;;;;;;;;;;6301670;22;20361;-38
2021/07/17 00:40:07;;;;;;;4.88;1.75;;;;;;;;;;6301784;22;19995;-38
2021/07/17 00:42:33;;;;;;;4.88;2.00;;;;;;;;;;6301417;22;20078;-38
2021/07/17 00:44:58;;;;;;;1.75;1.33;;;;;;;;;;6301660;22;20072;-38
2021/07/17 00:47:23;;;;;;;2.13;1.55;;;;;;;;;;6301810;22;19999;-39
2021/07/17 00:49:49;;;;;;;1.50;1.30;;;;;;;;;;6301427;22;20129;-38
2021/07/17 00:52:14;;;;;;;4.53;1.70;;;;;;;;;;6301529;22;20074;-38
2021/07/17 00:54:40;;;;;;;1.75;1.35;;;;;;;;;;6301940;22;20057;-39
2021/07/17 00:57:05;;;;;;;2.70;1.95;;;;;;;;;;6301701;22;20454;-39
2021/07/17 00:59:32;;;;;;;2.25;1.75;;;;;;;;;;6301856;22;20002;-38
2021/07/17 01:01:58;;;;;;;2.92;1.73;;;;;;;;;;6301374;22;20003;-39
2021/07/17 01:04:24;;;;;;;3.28;1.95;;;;;;;;;;6301531;22;20027;-38
2021/07/17 01:06:50;;;;;;;2.17;1.25;;;;;;;;;;6301311;22;20007;-39
2021/07/17 01:09:15;;;;;;;6.00;1.50;;;;;;;;;;6301836;22;19999;-39
2021/07/17 01:11:41;;;;;;;2.03;1.63;;;;;;;;;;6301293;22;20322;-38
2021/07/17 01:14:06;;;;;;;5.53;2.50;;;;;;;;;;6302635;22;20038;-38
2021/07/17 01:16:32;;;;;;;1.90;1.40;;;;;;;;;;6303347;22;20003;-38
2021/07/17 01:18:57;;;;;;;2.90;2.20;;;;;;;;;;6303800;22;19995;-38
2021/07/17 01:21:23;;;;;;;4.65;1.35;;;;;;;;;;6303785;22;20325;-39
2021/07/17 01:23:48;;;;;;;4.50;1.95;;;;;;;;;;6303120;22;20010;-38
2021/07/17 01:26:14;;;;;;;2.05;1.40;;;;;;;;;;6304041;22;19988;-38
2021/07/17 01:28:39;;;;;;;4.95;1.58;;;;;;;;;;6303119;22;20762;-39
2021/07/17 01:31:08;;;;;;;3.58;1.90;;;;;;;;;;6303653;22;20451;-38
2021/07/17 01:33:34;;;;;;;3.22;1.52;;;;;;;;;;6302991;22;20061;-38
2021/07/17 01:35:59;;;;;;;1.88;1.08;;;;;;;;;;6303653;22;19999;-39
2021/07/17 01:38:25;;;;;;;2.20;1.63;;;;;;;;;;6303294;22;20363;-39
2021/07/17 01:40:50;;;;;;;2.42;1.65;;;;;;;;;;6303121;22;19992;-38
2021/07/17 01:43:16;;;;;;;4.25;1.65;;;;;;;;;;6303343;22;19999;-39
2021/07/17 01:45:42;;;;;;;4.13;1.98;;;;;;;;;;6303062;22;20038;-38
2021/07/17 01:48:08;;;;;;;2.60;2.05;;;;;;;;;;6303204;22;19999;-40
2021/07/17 01:50:34;;;;;;;3.55;2.08;;;;;;;;;;6303578;22;19999;-38
2021/07/17 01:52:59;;;;;;;2.13;1.90;;;;;;;;;;6302956;22;20332;-39
2021/07/17 01:55:24;;;;;;;6.18;2.60;;;;;;;;;;6303588;22;20011;-39
2021/07/17 01:57:50;;;;;;;2.65;1.60;;;;;;;;;;6303202;22;20409;-38
2021/07/17 02:00:16;;;;;;;3.20;2.22;;;;;;;;;;6302943;22;20041;-38
2021/07/17 02:02:42;;;;;;;2.50;1.90;;;;;;;;;;6302875;22;19999;-38
2021/07/17 02:05:08;;;;;;;9.75;2.22;;;;;;;;;;6303230;22;19999;-37
2021/07/17 02:07:33;;;;;;;4.55;1.80;;;;;;;;;;6303340;22;19991;-38
2021/07/17 02:09:59;;;;;;;4.65;2.03;;;;;;;;;;6302854;22;20041;-38
2021/07/17 02:12:24;;;;;;;4.03;1.42;;;;;;;;;;6302502;22;20061;-38
2021/07/17 02:14:51;;;;;;;3.72;1.83;;;;;;;;;;6302301;22;20050;-39
2021/07/17 02:17:16;;;;;;;4.63;2.28;;;;;;;;;;6302864;22;19995;-37
2021/07/17 02:19:41;;;;;;;6.65;2.15;;;;;;;;;;6302852;22;20010;-38
2021/07/17 02:22:07;;;;;;;11.25;3.03;;;;;;;;;;6302773;22;20003;-38
2021/07/17 02:24:32;;;;;;;4.05;2.65;;;;;;;;;;6302500;22;20003;-38
2021/07/17 02:26:58;;;;;;;2.67;1.75;;;;;;;;;;6302856;22;20336;-38
2021/07/17 02:29:24;;;;;;;3.15;1.88;;;;;;;;;;6302616;22;20424;-40
2021/07/17 02:31:49;;;;;;;4.00;2.28;;;;;;;;;;6302704;22;20424;-39
2021/07/17 02:34:15;;;;;;;3.42;1.98;;;;;;;;;;6302574;22;20087;-38
2021/07/17 02:36:40;;;;;;;4.25;3.38;;;;;;;;;;6302700;22;20074;-38
2021/07/17 02:39:07;;;;;;;3.10;2.38;;;;;;;;;;6302419;22;19995;-39
2021/07/17 02:41:33;;;;;;;4.18;2.00;;;;;;;;;;6302508;22;20003;-38
2021/07/17 02:43:58;;;;;;;3.28;2.20;;;;;;;;;;6302936;22;20025;-38
2021/07/17 02:46:23;;;;;;;2.75;2.15;;;;;;;;;;6302747;22;19998;-38
2021/07/17 02:48:49;;;;;;;5.63;3.08;;;;;;;;;;6302534;22;20003;-38
2021/07/17 02:51:14;;;;;;;5.22;2.83;;;;;;;;;;6302215;22;20003;-38
2021/07/17 02:53:39;;;;;;;7.38;2.67;;;;;;;;;;6302476;22;20070;-38
2021/07/17 02:56:05;;;;;;;6.25;3.47;;;;;;;;;;6303025;22;20073;-39
2021/07/17 02:58:30;;;;;;;4.93;2.80;;;;;;;;;;6302606;22;20069;-39
2021/07/17 03:00:56;;;;;;;4.72;2.80;;;;;;;;;;6302577;22;20002;-38
2021/07/17 03:03:22;;;;;;;11.70;2.35;;;;;;;;;;6302750;22;19999;-38
2021/07/17 03:05:47;;;;;;;6.10;2.00;;;;;;;;;;6302747;22;20046;-38
2021/07/17 03:08:15;;;;;;;4.28;2.00;;;;;;;;;;6302223;22;20083;-38
2021/07/17 03:10:41;;;;;;;2.70;2.10;;;;;;;;;;6302394;22;20007;-39
2021/07/17 03:13:06;;;;;;;3.50;2.47;;;;;;;;;;6301932;22;20003;-38
2021/07/17 03:15:31;;;;;;;3.72;2.10;;;;;;;;;;6302148;22;20076;-38
2021/07/17 03:17:57;;;;;;;1.52;1.23;;;;;;;;;;6302622;22;19995;-38
2021/07/17 03:20:22;;;;;;;3.92;1.63;;;;;;;;;;6301868;22;20409;-38
2021/07/17 03:22:47;;;;;;;2.72;1.83;;;;;;;;;;6302524;22;20011;-38
2021/07/17 03:25:13;;;;;;;6.63;2.38;;;;;;;;;;6302236;22;20345;-38
2021/07/17 03:27:38;;;;;;;7.82;1.77;;;;;;;;;;6302418;22;19999;-38
2021/07/17 03:30:05;;;;;;;1.98;1.52;;;;;;;;;;6302625;22;20070;-40
2021/07/17 03:32:30;;;;;;;4.35;2.30;;;;;;;;;;6301293;22;19995;-38
2021/07/17 03:34:56;;;;;;;4.65;3.05;;;;;;;;;;6302581;22;20003;-38
2021/07/17 03:37:21;;;;;;;10.68;2.67;;;;;;;;;;6302347;22;20381;-38
2021/07/17 03:39:47;;;;;;;3.28;2.38;;;;;;;;;;6302024;22;19991;-39
2021/07/17 03:42:12;;;;;;;9.48;1.30;;;;;;;;;;6302243;22;20029;-38
2021/07/17 03:44:37;;;;;;;2.95;2.22;;;;;;;;;;6301615;22;20357;-38
2021/07/17 03:47:03;;;;;;;3.25;2.22;;;;;;;;;;6301452;22;20696;-38
2021/07/17 03:49:28;;;;;;;4.80;2.50;;;;;;;;;;6301234;22;20000;-38
2021/07/17 03:51:53;;;;;;;5.78;2.97;;;;;;;;;;6301670;22;20046;-38
2021/07/17 03:54:19;;;;;;;3.15;2.22;;;;;;;;;;6301845;22;19995;-38
2021/07/17 03:56:44;;;;;;;2.58;2.10;;;;;;;;;;6301652;22;20007;-38
2021/07/17 03:59:09;;;;;;;4.10;1.80;;;;;;;;;;6301631;22;20003;-39
2021/07/17 04:01:35;;;;;;;13.55;2.50;;;;;;;;;;6301879;22;20078;-39
2021/07/17 04:04:00;;;;;;;3.75;1.88;;;;;;;;;;6302682;22;19991;-38
2021/07/17 04:06:25;;;;;;;2.45;1.77;;;;;;;;;;6301936;22;20077;-38
2021/07/17 04:08:50;;;;;;;3.75;2.78;;;;;;;;;;6301657;22;20010;-39
2021/07/17 04:11:16;;;;;;;58.85;53.15;;;;;;;;;;6301776;22;19999;-38
2021/07/17 04:13:41;;;;;;;4.53;3.58;;;;;;;;;;6301773;22;20084;-38
2021/07/17 04:16:06;;;;;;;5.88;3.40;;;;;;;;;;6302227;22;20003;-38
2021/07/17 04:18:32;;;;;;;3.92;2.53;;;;;;;;;;6301569;22;20428;-38
2021/07/17 04:20:57;;;;;;;4.03;3.30;;;;;;;;;;6301796;22;19995;-38
2021/07/17 04:23:22;;;;;;;4.47;2.30;;;;;;;;;;6301636;22;20002;-38
2021/07/17 04:25:47;;;;;;;2.67;2.33;;;;;;;;;;6301742;22;20403;-38
2021/07/17 04:28:13;;;;;;;3.42;2.47;;;;;;;;;;6302338;22;20003;-38
2021/07/17 04:30:38;;;;;;;5.82;3.33;;;;;;;;;;6301265;22;20494;-38
2021/07/17 04:33:03;;;;;;;10.73;3.50;;;;;;;;;;6301325;22;20023;-38
2021/07/17 04:35:29;;;;;;;6.15;3.53;;;;;;;;;;6301907;22;19996;-38
2021/07/17 04:37:54;;;;;;;2.90;2.42;;;;;;;;;;6301595;22;20044;-38
2021/07/17 04:40:19;;;;;;;12.18;3.88;;;;;;;;;;6301657;22;20006;-38
2021/07/17 04:42:45;;;;;;;3.22;2.50;;;;;;;;;;6301526;22;20003;-38
2021/07/17 04:45:10;;;;;;;6.32;3.65;;;;;;;;;;6301468;22;20039;-38
2021/07/17 04:47:36;;;;;;;3.40;2.72;;;;;;;;;;6301745;22;20000;-38
2021/07/17 04:50:02;;;;;;;6.88;2.60;;;;;;;;;;6303647;22;19999;-38
2021/07/17 04:52:28;;;;;;;2.40;1.90;;;;;;;;;;6303672;22;19999;-38
2021/07/17 04:54:53;;;;;;;4.18;2.67;;;;;;;;;;6303503;22;20001;-39
2021/07/17 04:57:19;;;;;;;6.65;2.92;;;;;;;;;;6303783;22;19995;-38
2021/07/17 04:59:44;;;;;;;2.28;1.55;;;;;;;;;;6303556;22;20492;-38
2021/07/17 05:02:09;;;;;;;4.32;2.92;;;;;;;;;;6303796;22;20094;-38
2021/07/17 05:04:34;;;;;;;2.15;1.65;;;;;;;;;;6304315;22;20094;-38
2021/07/17 05:07:00;;;;;;;6.18;3.00;;;;;;;;;;6303637;22;20003;-39
2021/07/17 05:09:25;;;;;;;7.75;2.33;;;;;;;;;;6303692;22;19999;-38
2021/07/17 05:11:50;;;;;;;9.48;3.05;;;;;;;;;;6303356;22;20023;-38
2021/07/17 05:14:15;;;;;;;10.68;2.38;;;;;;;;;;6303295;22;20007;-38
2021/07/17 05:16:41;;;;;;;5.15;1.95;;;;;;;;;;6303899;22;20325;-38
2021/07/17 05:19:06;;;;;;;3.80;2.38;;;;;;;;;;6303660;22;20475;-38
2021/07/17 05:21:32;;;;;;;4.25;2.13;;;;;;;;;;6303626;22;20007;-38
2021/07/17 05:23:57;;;;;;;12.15;2.35;;;;;;;;;;6303370;22;20021;-38
2021/07/17 05:26:22;;;;;;;7.95;2.33;;;;;;;;;;6303762;22;20076;-39
2021/07/17 05:28:48;;;;;;;3.42;2.75;;;;;;;;;;6303501;22;20381;-38
2021/07/17 05:31:13;;;;;;;2.67;1.95;;;;;;;;;;6303113;22;20001;-38
2021/07/17 05:33:38;;;;;;;4.47;2.53;;;;;;;;;;6303300;22;20003;-38
2021/07/17 05:36:04;;;;;;;4.22;2.22;;;;;;;;;;6303601;22;20333;-37
2021/07/17 05:38:29;;;;;;;7.38;2.55;;;;;;;;;;6303560;22;20002;-38
2021/07/17 05:40:54;;;;;;;2.08;1.35;;;;;;;;;;6302881;22;20359;-38
2021/07/17 05:43:19;;;;;;;2.65;2.28;;;;;;;;;;6302841;22;20007;-38
2021/07/17 05:45:45;;;;;;;7.43;3.38;;;;;;;;;;6303571;22;20003;-38
2021/07/17 05:48:10;;;;;;;4.18;3.30;;;;;;;;;;6303110;22;20619;-38
2021/07/17 05:50:35;;;;;;;2.95;1.88;;;;;;;;;;6302927;22;19999;-38
2021/07/17 05:53:07;;;;;;;2.17;1.50;;;;;;;;;;6303235;22;20025;-38
2021/07/17 05:55:32;;;;;;;3.53;3.22;;;;;;;;;;6302419;22;19991;-38
2021/07/17 05:57:58;;;;;;;4.20;2.97;;;;;;;;;;6295388;22;20074;-38
2021/07/17 06:00:24;;;;;;;18.40;5.05;;;;;;;;;;6298670;22;19999;-41
2021/07/17 06:02:49;;;;;;;5.18;4.30;;;;;;;;;;6299022;22;20066;-38
2021/07/17 06:05:14;;;;;;;4.70;3.40;;;;;;;;;;6300489;22;20626;-38
2021/07/17 06:07:40;;;;;;;4.65;3.95;;;;;;;;;;6299192;22;20014;-38
2021/07/17 06:10:05;;;;;;;5.93;4.53;;;;;;;;;;6299066;22;20009;-39
2021/07/17 06:12:31;;;;;;;6.95;4.85;;;;;;;;;;6299336;22;20052;-38
2021/07/17 06:14:56;;;;;;;6.82;4.53;;;;;;;;;;6299032;22;20026;-38
2021/07/17 06:17:21;;;;;;;14.43;4.45;;;;;;;;;;6298732;22;20006;-38
2021/07/17 06:19:47;;;;;;;7.35;4.38;;;;;;;;;;6299479;22;20424;-37
2021/07/17 06:22:12;;;;;;;3.95;1.92;;;;;;;;;;6300676;22;20026;-37
2021/07/17 06:24:38;;;;;;;16.50;10.27;;;;;;;;;;6299514;22;20437;-38
2021/07/17 06:27:03;;;;;;;23.33;18.83;;;;;;;;;;6299658;22;20360;-38
2021/07/17 06:29:29;;;;;;;15.05;10.18;;;;;;;;;;6299357;22;19995;-38
2021/07/17 06:31:55;;;;;;;7.60;4.53;;;;;;;;;;6299219;22;20038;-37
2021/07/17 06:34:20;;;;;;;4.28;2.75;;;;;;;;;;6299712;22;19999;-37
2021/07/17 06:36:45;;;;;;;3.63;1.80;;;;;;;;;;6299322;22;20007;-38
2021/07/17 06:39:11;;;;;;;3.88;2.50;;;;;;;;;;6299544;22;19999;-37
2021/07/17 06:41:36;;;;;;;5.43;2.08;;;;;;;;;;6299684;22;20003;-37
2021/07/17 06:44:03;;;;;;;7.13;2.40;;;;;;;;;;6299086;22;20372;-37
2021/07/17 06:46:28;;;;;;;6.53;2.17;;;;;;;;;;6297933;22;20074;-41
2021/07/17 06:48:55;;;;;;;9.57;6.93;;;;;;;;;;6299045;22;20029;-39
2021/07/17 06:51:20;;;;;;;22.80;17.80;;;;;;;;;;6299659;22;20002;-38
2021/07/17 06:53:46;;;;;;;21.33;13.18;;;;;;;;;;6299049;22;19999;-38
2021/07/17 06:56:13;;;;;;;6.60;5.03;;;;;;;;;;6299491;22;20301;-38
2021/07/17 06:58:38;;;;;;;6.28;3.63;;;;;;;;;;6298911;22;20003;-38
2021/07/17 07:01:03;;;;;;;12.82;7.10;;;;;;;;;;6299674;22;20900;-38
2021/07/17 07:03:29;;;;;;;8.32;5.97;;;;;;;;;;6298388;22;20014;-39
2021/07/17 07:05:54;;;;;;;9.52;5.60;;;;;;;;;;6297602;22;20130;-39
2021/07/17 07:08:20;;;;;;;4.85;3.13;;;;;;;;;;6298828;22;20003;-38
2021/07/17 07:10:45;;;;;;;9.25;5.22;;;;;;;;;;6297519;22;20074;-39
2021/07/17 07:13:12;;;;;;;20.25;4.18;;;;;;;;;;6298243;22;19999;-38
2021/07/17 07:15:37;;;;;;;12.77;3.55;;;;;;;;;;6298072;22;20015;-38
2021/07/17 07:18:03;;;;;;;9.55;3.33;;;;;;;;;;6297551;22;20496;-38
2021/07/17 07:20:28;;;;;;;30.80;4.78;;;;;;;;;;6297803;22;20324;-38
2021/07/17 07:22:53;;;;;;;2.92;2.60;;;;;;;;;;6297134;22;20003;-38
2021/07/17 07:25:18;;;;;;;6.00;3.13;;;;;;;;;;6297918;22;20007;-37
2021/07/17 07:27:45;;;;;;;8.95;2.97;;;;;;;;;;6297425;22;20076;-37
2021/07/17 07:30:10;;;;;;;2.28;1.67;;;;;;;;;;6297057;22;19999;-38
2021/07/17 07:32:35;;;;;;;5.57;2.95;;;;;;;;;;6296776;22;20000;-38
2021/07/17 07:35:01;;;;;;;5.05;2.17;;;;;;;;;;6297643;22;19999;-39
2021/07/17 07:37:27;;;;;;;2.15;1.65;;;;;;;;;;6298494;22;20066;-37
2021/07/17 07:39:54;;;;;;;2.40;1.52;;;;;;;;;;6298208;22;20052;-38
2021/07/17 07:42:20;;;;;;;4.80;1.85;;;;;;;;;;6297519;22;20507;-38
2021/07/17 07:44:45;;;;;;;2.22;1.30;;;;;;;;;;6297230;22;19999;-38
2021/07/17 07:47:10;;;;;;;1.63;1.20;;;;;;;;;;6297581;22;20428;-38
2021/07/17 07:49:36;;;;;;;26.88;5.57;;;;;;;;;;6297895;22;20389;-37
2021/07/17 07:52:01;;;;;;;6.93;2.50;;;;;;;;;;6298516;22;20780;-38
2021/07/17 07:54:26;;;;;;;3.13;1.75;;;;;;;;;;6297396;22;20526;-37
2021/07/17 07:56:52;;;;;;;21.50;4.20;;;;;;;;;;6297460;22;20072;-37
2021/07/17 07:59:17;;;;;;;5.43;2.72;;;;;;;;;;6297043;22;20615;-38
2021/07/17 08:01:42;;;;;;;4.38;2.58;;;;;;;;;;6297590;22;20010;-39
2021/07/17 08:04:09;;;;;;;5.53;3.08;;;;;;;;;;6298025;22;20616;-38
2021/07/17 08:06:34;;;;;;;341.02;64.43;;;;;;;;;;6298584;22;20056;-38
2021/07/17 08:08:59;;;;;;;11.80;3.97;;;;;;;;;;6297635;22;20219;-40
2021/07/17 08:11:25;;;;;;;35.70;6.57;;;;;;;;;;6297220;22;20344;-38
2021/07/17 08:13:50;;;;;;;8.48;3.22;;;;;;;;;;6297227;22;20109;-38
2021/07/17 08:16:15;;;;;;;3.10;2.50;;;;;;;;;;6298184;22;19999;-38
2021/07/17 08:18:41;;;;;;;12.85;3.50;;;;;;;;;;6298340;22;19995;-38
2021/07/17 08:21:06;;;;;;;4.88;2.35;;;;;;;;;;6297766;22;20004;-38
2021/07/17 08:23:31;;;;;;;3.70;1.98;;;;;;;;;;6298315;22;20064;-38
2021/07/17 08:25:57;;;;;;;8.35;2.53;;;;;;;;;;6298719;22;20480;-39
2021/07/17 08:28:22;;;;;;;2.00;1.45;;;;;;;;;;6298224;22;20432;-37
2021/07/17 08:30:47;;;;;;;8.15;2.15;;;;;;;;;;6297877;22;20420;-37
2021/07/17 08:33:13;;;;;;;2.72;1.58;;;;;;;;;;6297630;22;20003;-38
2021/07/17 08:35:38;;;;;;;5.95;2.28;;;;;;;;;;6298304;22;19996;-38
2021/07/17 08:38:03;;;;;;;11.18;2.55;;;;;;;;;;6299098;22;20750;-37
2021/07/17 08:40:29;;;;;;;6.60;4.20;;;;;;;;;;6298283;22;20090;-37
2021/07/17 08:42:55;;;;;;;6.32;1.45;;;;;;;;;;6297990;22;20074;-37
2021/07/17 08:45:21;;;;;;;4.95;1.65;;;;;;;;;;6298659;22;20003;-38
2021/07/17 08:47:47;;;;;;;1.70;1.30;;;;;;;;;;6298010;22;20045;-37
2021/07/17 08:50:16;;;;;;;3.67;1.48;;;;;;;;;;6297317;22;20433;-37
2021/07/17 08:52:42;;;;;;;3.33;2.03;;;;;;;;;;6297138;22;20007;-37
2021/07/17 08:55:08;;;;;;;2.35;1.13;;;;;;;;;;6296877;22;20165;-37
2021/07/17 08:57:34;;;;;;;3.70;2.13;;;;;;;;;;6298418;22;19999;-37
2021/07/17 09:00:00;;;;;;;3.42;1.90;;;;;;;;;;6297957;22;20543;-38
2021/07/17 09:02:26;;;;;;;2.20;2.00;;;;;;;;;;6297445;22;20009;-38
2021/07/17 09:04:51;;;;;;;5.30;1.88;;;;;;;;;;6298220;22;20003;-37
2021/07/17 09:07:16;;;;;;;4.80;2.35;;;;;;;;;;6298657;22;20075;-37
2021/07/17 09:09:42;;;;;;;1.73;0.80;;;;;;;;;;6297291;22;20006;-37
2021/07/17 09:12:23;;;;;;;4.00;2.47;;;;;;;;;;6296657;22;20000;-37
2021/07/17 09:14:49;;;;;;;5.30;2.05;;;;;;;;;;6296833;22;20476;-38
2021/07/17 09:17:22;;;;;;;3.40;2.08;;;;;;;;;;6296671;22;19999;-37
2021/07/17 09:19:58;;;;;;;2.42;1.52;;;;;;;;;;6297499;22;20027;-37
2021/07/17 09:22:37;;;;;;;3.25;1.90;;;;;;;;;;6297901;22;20007;-40
2021/07/17 09:25:07;;;;;;;12.45;1.40;;;;;;;;;;6297351;22;20014;-37
2021/07/17 09:27:32;;;;;;;4.80;1.52;;;;;;;;;;6296601;22;20086;-37
2021/07/17 09:29:57;;;;;;;4.30;1.80;;;;;;;;;;6297131;22;20049;-38
2021/07/17 09:32:23;;;;;;;4.45;1.58;;;;;;;;;;6296353;22;20742;-38
2021/07/17 09:34:49;;;;;;;2.20;1.70;;;;;;;;;;6297614;22;19995;-38
2021/07/17 09:37:15;;;;;;;3.85;2.30;;;;;;;;;;6299877;22;20132;-38
2021/07/17 09:39:44;;;;;;;3.40;1.98;;;;;;;;;;6299208;22;19995;-38
2021/07/17 09:42:13;;;;;;;3.92;1.77;;;;;;;;;;6298824;22;20003;-38
2021/07/17 09:44:38;;;;;;;2.60;1.30;;;;;;;;;;6299442;22;20318;-38
2021/07/17 09:47:17;;;;;;;5.65;2.83;;;;;;;;;;6298609;22;20415;-37
2021/07/17 09:49:42;;;;;;;3.67;1.83;;;;;;;;;;6299388;22;20048;-37
2021/07/17 09:52:12;;;;;;;1.60;1.35;;;;;;;;;;6298916;22;20007;-37
2021/07/17 09:55:00;;;;;;;1.55;0.90;;;;;;;;;;6299502;22;19999;-38
2021/07/17 09:57:28;;;;;;;7.45;2.42;;;;;;;;;;6299095;22;19999;-37
2021/07/17 10:00:23;;;;;;;4.97;1.77;;;;;;;;;;6299348;22;20001;-38
2021/07/17 10:02:49;;;;;;;11.90;1.98;;;;;;;;;;6296003;22;20010;-37
2021/07/17 10:05:15;;;;;;;5.28;2.05;;;;;;;;;;6298801;22;19999;-36
2021/07/17 10:07:40;;;;;;;3.00;1.33;;;;;;;;;;6299734;22;19999;-36
2021/07/17 10:10:06;;;;;;;2.95;1.42;;;;;;;;;;6299196;22;20003;-35
2021/07/17 10:12:33;;;;;;;4.10;2.53;;;;;;;;;;6298302;22;20443;-36
2021/07/17 10:14:58;;;;;;;2.47;1.20;;;;;;;;;;6298706;22;20011;-36
2021/07/17 10:17:32;;;;;;;3.45;2.30;;;;;;;;;;6299000;22;20009;-37
2021/07/17 10:20:00;;;;;;;10.35;2.58;;;;;;;;;;6298443;22;20001;-36
2021/07/17 10:22:25;;;;;;;5.72;1.77;;;;;;;;;;6299664;22;20096;-36
2021/07/17 10:24:51;;;;;;;4.47;2.50;;;;;;;;;;6298135;22;20392;-36
2021/07/17 10:27:16;;;;;;;2.90;1.50;;;;;;;;;;6298535;22;20009;-36
2021/07/17 10:29:42;;;;;;;5.75;2.35;;;;;;;;;;6298199;22;20003;-36
2021/07/17 10:32:07;;;;;;;2.58;1.55;;;;;;;;;;6298295;22;19999;-35
2021/07/17 10:34:34;;;;;;;10.98;2.10;;;;;;;;;;6298178;22;20158;-35
2021/07/17 10:37:13;;;;;;;2.83;1.13;;;;;;;;;;6298403;22;20003;-36
2021/07/17 10:39:41;;;;;;;1.60;1.00;;;;;;;;;;6298925;22;20076;-36
2021/07/17 10:42:18;;;;;;;6.10;1.55;;;;;;;;;;6298091;22;20436;-36
2021/07/17 10:44:54;;;;;;;3.92;1.85;;;;;;;;;;6298426;22;20010;-36
2021/07/17 10:47:20;;;;;;;2.47;1.27;;;;;;;;;;6298394;22;20110;-36
2021/07/17 10:49:47;;;;;;;1.45;0.90;;;;;;;;;;6298271;22;20501;-36
2021/07/17 10:52:13;;;;;;;2.72;1.30;;;;;;;;;;6297642;22;19999;-36
2021/07/17 10:54:39;;;;;;;6.05;2.58;;;;;;;;;;6298412;22;20451;-36
2021/07/17 10:57:05;;;;;;;5.07;2.22;;;;;;;;;;6298908;22;19995;-36
2021/07/17 10:59:30;;;;;;;2.72;1.45;;;;;;;;;;6298655;22;20383;-36
2021/07/17 11:01:59;;;;;;;2.50;0.95;;;;;;;;;;6297713;22;20430;-36
2021/07/17 11:04:44;;;;;;;2.97;1.55;;;;;;;;;;6297577;22;19999;-36
2021/07/17 11:07:15;;;;;;;7.50;2.10;;;;;;;;;;6296217;22;20403;-36
2021/07/17 11:09:55;;;;;;;1.55;1.05;;;;;;;;;;6298525;22;19999;-36
2021/07/17 11:12:22;;;;;;;3.53;1.90;;;;;;;;;;6298448;22;19999;-41
2021/07/17 11:14:47;;;;;;;1.25;0.90;;;;;;;;;;6297724;22;20122;-40
2021/07/17 11:17:33;;;;;;;2.15;1.55;;;;;;;;;;6298174;22;20033;-40
2021/07/17 11:20:14;;;;;;;2.03;1.45;;;;;;;;;;6296047;22;20003;-40
2021/07/17 11:22:40;;;;;;;3.90;1.73;;;;;;;;;;6296453;22;20011;-39
2021/07/17 11:25:05;;;;;;;2.17;1.65;;;;;;;;;;6295990;22;20003;-40
2021/07/17 11:27:38;;;;;;;6.32;2.67;;;;;;;;;;6296257;22;20420;-39
2021/07/17 11:30:12;;;;;;;2.08;1.58;;;;;;;;;;6296465;22;20074;-41
2021/07/17 11:32:37;;;;;;;4.15;1.85;;;;;;;;;;6296427;22;20071;-42
2021/07/17 11:35:21;;;;;;;11.43;2.15;;;;;;;;;;6295585;22;20003;-41
2021/07/17 11:37:47;;;;;;;2.63;1.77;;;;;;;;;;6296609;22;19996;-39
2021/07/17 11:40:13;;;;;;;2.90;1.45;;;;;;;;;;6296382;22;19999;-39
2021/07/17 11:42:38;;;;;;;3.33;1.70;;;;;;;;;;6296372;22;20017;-40
2021/07/17 11:45:05;;;;;;;2.88;1.30;;;;;;;;;;6297663;22;20003;-40
2021/07/17 11:47:30;;;;;;;4.68;1.67;;;;;;;;;;6296661;22;20003;-40
2021/07/17 11:49:56;;;;;;;7.40;1.83;;;;;;;;;;6296655;22;20803;-40
2021/07/17 11:52:25;;;;;;;1.58;0.93;;;;;;;;;;6297031;22;20030;-40
2021/07/17 11:54:55;;;;;;;4.40;1.77;;;;;;;;;;6297880;22;20007;-42
2021/07/17 11:57:33;;;;;;;9.83;2.87;;;;;;;;;;6296406;22;20007;-41
2021/07/17 12:00:01;;;;;;;2.72;1.92;;;;;;;;;;6297167;22;20509;-39
2021/07/17 12:02:27;;;;;;;2.97;1.58;;;;;;;;;;6297165;22;20049;-39
2021/07/17 12:04:57;;;;;;;3.50;1.73;;;;;;;;;;6296843;22;20003;-41
2021/07/17 12:07:26;;;;;;;6.63;1.23;;;;;;;;;;6298161;22;20030;-39
2021/07/17 12:09:55;;;;;;;2.17;1.63;;;;;;;;;;6297757;22;20002;-39
2021/07/17 12:12:22;;;;;;;3.33;2.15;;;;;;;;;;6297624;22;20145;-41
2021/07/17 12:14:55;;;;;;;3.05;1.88;;;;;;;;;;6296812;22;20022;-41
2021/07/17 12:17:23;;;;;;;5.28;3.40;;;;;;;;;;6297533;22;19996;-37
2021/07/17 12:20:03;;;;;;;2.42;1.85;;;;;;;;;;6297747;22;19996;-38
2021/07/17 12:22:28;;;;;;;10.50;2.55;;;;;;;;;;6297368;22;20470;-38
2021/07/17 12:25:00;;;;;;;3.47;2.00;;;;;;;;;;6298130;22;20003;-33
2021/07/17 12:27:25;;;;;;;7.63;2.80;;;;;;;;;;6297400;22;20007;-37
2021/07/17 12:29:50;;;;;;;2.67;1.42;;;;;;;;;;6296926;22;20088;-41
2021/07/17 12:32:19;;;;;;;4.88;2.20;;;;;;;;;;6297686;22;20003;-36
2021/07/17 12:34:52;;;;;;;5.18;1.70;;;;;;;;;;6297594;22;20491;-38
2021/07/17 12:37:28;;;;;;;2.40;1.52;;;;;;;;;;6297456;22;20003;-37
2021/07/17 12:40:22;;;;;;;3.28;1.48;;;;;;;;;;6298447;22;20464;-37
2021/07/17 12:42:49;;;;;;;1.98;0.80;;;;;;;;;;6277112;22;20003;-37
2021/07/17 12:45:15;;;;;;;9.48;2.10;;;;;;;;;;6297978;22;19999;-37
2021/07/17 12:47:53;;;;;;;4.80;1.45;;;;;;;;;;6298157;22;20007;-37
2021/07/17 12:50:20;;;;;;;10.73;1.30;;;;;;;;;;6298067;22;20007;-37
2021/07/17 12:52:46;;;;;;;2.63;1.40;;;;;;;;;;6297722;22;20014;-37
2021/07/17 12:55:11;;;;;;;3.92;2.03;;;;;;;;;;6298282;22;20340;-37
2021/07/17 12:57:37;;;;;;;4.70;2.00;;;;;;;;;;6298067;22;20049;-37
2021/07/17 13:00:04;;;;;;;1.45;0.95;;;;;;;;;;6297405;22;20333;-37
2021/07/17 13:02:29;;;;;;;1.80;1.23;;;;;;;;;;6297300;22;19999;-37
2021/07/17 13:04:54;;;;;;;3.28;1.63;;;;;;;;;;6297127;22;20006;-37
2021/07/17 13:07:33;;;;;;;4.90;1.17;;;;;;;;;;6296948;22;20044;-38
2021/07/17 13:09:58;;;;;;;5.65;1.30;;;;;;;;;;6299631;22;19999;-37
2021/07/17 13:12:32;;;;;;;4.18;1.92;;;;;;;;;;6299176;22;20003;-35
2021/07/17 13:15:00;;;;;;;4.32;1.83;;;;;;;;;;6298606;22;20019;-38
2021/07/17 13:17:30;;;;;;;3.15;1.52;;;;;;;;;;6300116;22;19995;-39
2021/07/17 13:20:03;;;;;;;1.27;0.77;;;;;;;;;;6299815;22;20005;-37
2021/07/17 13:22:36;;;;;;;1.83;1.10;;;;;;;;;;6300074;22;20003;-37
2021/07/17 13:25:24;;;;;;;2.30;1.23;;;;;;;;;;6299901;22;20038;-37
2021/07/17 13:27:49;;;;;;;4.50;1.88;;;;;;;;;;6299184;22;20239;-37
2021/07/17 13:30:15;;;;;;;3.95;2.03;;;;;;;;;;6298573;22;20432;-37
2021/07/17 13:32:43;;;;;;;2.05;1.33;;;;;;;;;;6299165;22;19999;-37
2021/07/17 13:35:22;;;;;;;2.38;1.33;;;;;;;;;;6298597;22;19995;-37
2021/07/17 13:37:59;;;;;;;3.45;1.63;;;;;;;;;;6299669;22;20014;-37
2021/07/17 13:40:26;;;;;;;2.10;1.85;;;;;;;;;;6299593;22;19995;-37
2021/07/17 13:42:51;;;;;;;1.58;1.05;;;;;;;;;;6298324;22;20004;-38
2021/07/17 13:45:17;;;;;;;2.22;1.13;;;;;;;;;;6299177;22;20661;-37
2021/07/17 13:47:44;;;;;;;3.00;1.30;;;;;;;;;;6298749;22;20086;-38
2021/07/17 13:50:19;;;;;;;5.60;1.80;;;;;;;;;;6298746;22;20003;-36
2021/07/17 13:52:44;;;;;;;2.88;1.60;;;;;;;;;;6298491;22;20025;-35
2021/07/17 13:55:10;;;;;;;2.42;1.45;;;;;;;;;;6299390;22;20003;-35
2021/07/17 13:57:37;;;;;;;4.70;1.30;;;;;;;;;;6299326;22;20359;-35
2021/07/17 14:00:07;;;;;;;3.95;1.52;;;;;;;;;;6299291;22;20006;-38
2021/07/17 14:02:33;;;;;;;;;;;;;;;;;;6298583;22;20004;-37
2021/07/17 14:04:58;;;;;;;3.88;2.15;;;;;;;;;;6298600;22;19903;-37
2021/07/17 14:07:23;;;;;;;4.35;1.85;;;;;;;;;;6298495;22;20030;-38
2021/07/17 14:09:48;;;;;;;9.13;1.70;;;;;;;;;;6299195;22;20328;-37
2021/07/17 14:12:14;;;;;;;1.02;0.75;;;;;;;;;;6299009;22;19999;-38
2021/07/17 14:14:39;;;;;;;2.28;1.33;;;;;;;;;;6298165;22;20064;-37
2021/07/17 14:17:05;;;;;;;2.90;2.03;;;;;;;;;;6298938;22;20006;-37
2021/07/17 14:19:30;;;;;;;2.42;1.05;;;;;;;;;;6298870;22;19999;-37
2021/07/17 14:21:55;;;;;;;2.92;1.55;;;;;;;;;;6298883;22;20006;-37
2021/07/17 14:24:20;;;;;;;4.53;1.70;;;;;;;;;;6299092;22;19995;-37
2021/07/17 14:26:46;;;;;;;3.15;1.25;;;;;;;;;;6299480;22;20110;-37
2021/07/17 14:29:12;;;;;;;13.23;2.03;;;;;;;;;;6296837;22;20074;-37
2021/07/17 14:31:38;;;;;;;2.58;1.30;;;;;;;;;;6298462;22;20000;-37
2021/07/17 14:34:04;;;;;;;3.13;1.38;;;;;;;;;;6298449;22;20004;-37
2021/07/17 14:36:30;;;;;;;4.68;2.22;;;;;;;;;;6298590;22;20003;-38
2021/07/17 14:38:55;;;;;;;3.30;1.80;;;;;;;;;;6298595;22;19996;-38